sensor_id;sensor_type;location;lat;lon;timestamp;pressure;altitude;pressure_sealevel;temperature;humidity
44920;BME280;30655;53.094;6.072;2023-02-13T00:00:59;103803.78;;;6.63;92.63
44920;BME280;30655;53.094;6.072;2023-02-13T00:03:26;103788.69;;;6.62;92.66
44920;BME280;30655;53.094;6.072;2023-02-13T00:05:54;103777.09;;;6.54;92.72
44920;BME280;30655;53.094;6.072;2023-02-13T00:08:21;103874.31;;;7.22;92.79
44920;BME280;30655;53.094;6.072;2023-02-13T00:10:47;103970.72;;;7.73;92.81
44920;BME280;30655;53.094;6.072;2023-02-13T00:13:15;103917.47;;;7.45;92.95
44920;BME280;30655;53.094;6.072;2023-02-13T00:15:43;103970.91;;;7.72;93.04
44920;BME280;30655;53.094;6.072;2023-02-13T00:18:10;103946.34;;;7.59;93.16
44920;BME280;30655;53.094;6.072;2023-02-13T00:20:37;103878.84;;;7.21;92.82
44920;BME280;30655;53.094;6.072;2023-02-13T00:23:04;103877.81;;;7.22;93.13
44920;BME280;30655;53.094;6.072;2023-02-13T00:25:31;103835.53;;;6.92;92.66
44920;BME280;30655;53.094;6.072;2023-02-13T00:27:58;103946.50;;;7.57;93.19
44920;BME280;30655;53.094;6.072;2023-02-13T00:30:25;103940.97;;;7.59;92.77
44920;BME280;30655;53.094;6.072;2023-02-13T00:32:53;103771.88;;;6.60;92.65
44920;BME280;30655;53.094;6.072;2023-02-13T00:35:20;103959.63;;;7.68;92.53
44920;BME280;30655;53.094;6.072;2023-02-13T00:37:47;103910.06;;;7.39;92.76
44920;BME280;30655;53.094;6.072;2023-02-13T00:40:15;103951.06;;;7.65;92.82
44920;BME280;30655;53.094;6.072;2023-02-13T00:42:42;103762.28;;;6.58;92.36
44920;BME280;30655;53.094;6.072;2023-02-13T00:45:14;103885.53;;;7.33;92.91
44920;BME280;30655;53.094;6.072;2023-02-13T00:47:44;103929.50;;;7.65;93.05
44920;BME280;30655;53.094;6.072;2023-02-13T00:50:13;103868.22;;;7.28;92.27
44920;BME280;30655;53.094;6.072;2023-02-13T00:52:40;103967.69;;;7.76;93.12
44920;BME280;30655;53.094;6.072;2023-02-13T00:55:07;103747.84;;;6.59;92.49
44920;BME280;30655;53.094;6.072;2023-02-13T00:57:35;103841.00;;;7.15;92.32
44920;BME280;30655;53.094;6.072;2023-02-13T01:00:04;103945.47;;;7.74;92.34
44920;BME280;30655;53.094;6.072;2023-02-13T01:02:31;103842.22;;;7.12;92.34
44920;BME280;30655;53.094;6.072;2023-02-13T01:04:57;103953.91;;;7.71;92.70
44920;BME280;30655;53.094;6.072;2023-02-13T01:07:27;103918.13;;;7.39;92.42
44920;BME280;30655;53.094;6.072;2023-02-13T01:09:54;103794.88;;;6.71;92.52
44920;BME280;30655;53.094;6.072;2023-02-13T01:12:21;103850.13;;;6.98;92.44
44920;BME280;30655;53.094;6.072;2023-02-13T01:14:49;103821.75;;;6.79;92.56
44920;BME280;30655;53.094;6.072;2023-02-13T01:17:17;103966.88;;;7.60;93.03
44920;BME280;30655;53.094;6.072;2023-02-13T01:19:44;103834.34;;;6.78;92.46
44920;BME280;30655;53.094;6.072;2023-02-13T01:22:11;103974.59;;;7.63;93.04
44920;BME280;30655;53.094;6.072;2023-02-13T01:24:40;103844.44;;;6.84;92.61
44920;BME280;30655;53.094;6.072;2023-02-13T01:27:07;103892.44;;;7.20;92.59
44920;BME280;30655;53.094;6.072;2023-02-13T01:29:33;103954.78;;;7.56;92.56
44920;BME280;30655;53.094;6.072;2023-02-13T01:32:01;103878.84;;;7.13;92.53
44920;BME280;30655;53.094;6.072;2023-02-13T01:34:30;103911.25;;;7.28;92.80
44920;BME280;30655;53.094;6.072;2023-02-13T01:36:56;103729.41;;;6.23;92.40
44920;BME280;30655;53.094;6.072;2023-02-13T01:39:25;103810.00;;;6.64;92.58
44920;BME280;30655;53.094;6.072;2023-02-13T01:41:57;103949.41;;;7.56;92.52
44920;BME280;30655;53.094;6.072;2023-02-13T01:44:47;103952.75;;;7.50;92.59
44920;BME280;30655;53.094;6.072;2023-02-13T01:47:18;103876.00;;;6.99;92.63
44920;BME280;30655;53.094;6.072;2023-02-13T01:49:48;103950.06;;;7.50;92.59
44920;BME280;30655;53.094;6.072;2023-02-13T01:52:16;103846.78;;;6.79;92.85
44920;BME280;30655;53.094;6.072;2023-02-13T01:54:43;103931.63;;;7.30;92.81
44920;BME280;30655;53.094;6.072;2023-02-13T01:57:15;103940.31;;;7.49;93.36
44920;BME280;30655;53.094;6.072;2023-02-13T01:59:47;103894.97;;;7.21;93.20
44920;BME280;30655;53.094;6.072;2023-02-13T02:02:14;103949.41;;;7.48;93.42
44920;BME280;30655;53.094;6.072;2023-02-13T02:04:43;103808.84;;;6.66;92.65
44920;BME280;30655;53.094;6.072;2023-02-13T02:07:22;103870.94;;;7.04;92.82
44920;BME280;30655;53.094;6.072;2023-02-13T02:09:51;103783.81;;;6.49;93.01
44920;BME280;30655;53.094;6.072;2023-02-13T02:12:25;103742.84;;;6.39;93.30
44920;BME280;30655;53.094;6.072;2023-02-13T02:14:54;103843.91;;;7.05;92.89
44920;BME280;30655;53.094;6.072;2023-02-13T02:17:24;103721.53;;;6.30;93.04
44920;BME280;30655;53.094;6.072;2023-02-13T02:20:03;103739.50;;;6.37;92.67
44920;BME280;30655;53.094;6.072;2023-02-13T02:22:54;103745.69;;;6.38;93.17
44920;BME280;30655;53.094;6.072;2023-02-13T02:26:07;103890.38;;;7.38;93.37
44920;BME280;30655;53.094;6.072;2023-02-13T02:29:24;103753.91;;;6.53;93.24
44920;BME280;30655;53.094;6.072;2023-02-13T02:32:22;103739.97;;;6.49;93.15
44920;BME280;30655;53.094;6.072;2023-02-13T02:35:03;103803.59;;;6.89;93.23
44920;BME280;30655;53.094;6.072;2023-02-13T02:37:54;103923.66;;;7.61;93.45
44920;BME280;30655;53.094;6.072;2023-02-13T02:40:27;103762.63;;;6.71;93.62
44920;BME280;30655;53.094;6.072;2023-02-13T02:43:09;103696.34;;;6.31;93.10
44920;BME280;30655;53.094;6.072;2023-02-13T02:45:49;103716.31;;;6.44;93.40
44920;BME280;30655;53.094;6.072;2023-02-13T02:48:26;103852.91;;;7.28;93.52
44920;BME280;30655;53.094;6.072;2023-02-13T02:50:59;103883.47;;;7.44;93.21
44920;BME280;30655;53.094;6.072;2023-02-13T02:53:32;103776.38;;;6.84;93.57
44920;BME280;30655;53.094;6.072;2023-02-13T02:56:09;103894.72;;;7.55;93.69
44920;BME280;30655;53.094;6.072;2023-02-13T02:58:41;103782.06;;;6.89;93.33
44920;BME280;30655;53.094;6.072;2023-02-13T03:01:13;103717.00;;;6.46;93.62
44920;BME280;30655;53.094;6.072;2023-02-13T03:03:48;103853.91;;;7.27;93.79
44920;BME280;30655;53.094;6.072;2023-02-13T03:06:18;103732.75;;;6.58;93.18
44920;BME280;30655;53.094;6.072;2023-02-13T03:08:53;103811.09;;;7.10;93.34
44920;BME280;30655;53.094;6.072;2023-02-13T03:11:21;103794.13;;;7.09;93.26
44920;BME280;30655;53.094;6.072;2023-02-13T03:13:53;103688.09;;;6.48;93.19
44920;BME280;30655;53.094;6.072;2023-02-13T03:16:23;103677.22;;;6.42;93.01
44920;BME280;30655;53.094;6.072;2023-02-13T03:18:56;103722.47;;;6.69;93.33
44920;BME280;30655;53.094;6.072;2023-02-13T03:21:38;103689.13;;;6.39;93.41
44920;BME280;30655;53.094;6.072;2023-02-13T03:24:27;103844.78;;;7.45;93.14
44920;BME280;30655;53.094;6.072;2023-02-13T03:27:05;103740.13;;;6.72;93.02
44920;BME280;30655;53.094;6.072;2023-02-13T03:29:43;103862.59;;;7.54;93.04
44920;BME280;30655;53.094;6.072;2023-02-13T03:32:19;103898.53;;;7.69;93.31
44920;BME280;30655;53.094;6.072;2023-02-13T03:35:15;103767.63;;;6.90;92.71
44920;BME280;30655;53.094;6.072;2023-02-13T03:37:53;103697.66;;;6.51;92.56
44920;BME280;30655;53.094;6.072;2023-02-13T03:40:27;103780.03;;;6.99;92.65
44920;BME280;30655;53.094;6.072;2023-02-13T03:43:03;103748.13;;;6.88;92.77
44920;BME280;30655;53.094;6.072;2023-02-13T03:45:36;103676.34;;;6.49;92.29
44920;BME280;30655;53.094;6.072;2023-02-13T03:48:06;103733.53;;;6.82;92.62
44920;BME280;30655;53.094;6.072;2023-02-13T03:50:39;103727.00;;;6.69;92.77
44920;BME280;30655;53.094;6.072;2023-02-13T03:53:10;103693.47;;;6.48;92.34
44920;BME280;30655;53.094;6.072;2023-02-13T03:55:41;103904.91;;;7.76;92.47
44920;BME280;30655;53.094;6.072;2023-02-13T03:58:14;103890.78;;;7.74;92.62
44920;BME280;30655;53.094;6.072;2023-02-13T04:00:49;103832.56;;;7.34;92.25
44920;BME280;30655;53.094;6.072;2023-02-13T04:03:23;103888.09;;;7.74;92.58
44920;BME280;30655;53.094;6.072;2023-02-13T04:05:59;103870.97;;;7.67;92.65
44920;BME280;30655;53.094;6.072;2023-02-13T04:08:29;103712.09;;;6.58;92.51
44920;BME280;30655;53.094;6.072;2023-02-13T04:11:03;103826.00;;;7.37;92.17
44920;BME280;30655;53.094;6.072;2023-02-13T04:13:36;103913.63;;;7.78;92.26
44920;BME280;30655;53.094;6.072;2023-02-13T04:16:11;103878.69;;;7.70;92.15
44920;BME280;30655;53.094;6.072;2023-02-13T04:18:42;103860.56;;;7.56;92.58
44920;BME280;30655;53.094;6.072;2023-02-13T04:21:13;103752.53;;;6.81;92.30
44920;BME280;30655;53.094;6.072;2023-02-13T04:23:40;103773.13;;;7.05;92.60
44920;BME280;30655;53.094;6.072;2023-02-13T04:26:13;103892.47;;;7.75;92.08
44920;BME280;30655;53.094;6.072;2023-02-13T04:28:43;103738.41;;;6.79;91.83
44920;BME280;30655;53.094;6.072;2023-02-13T04:31:11;103889.75;;;7.75;92.29
44920;BME280;30655;53.094;6.072;2023-02-13T04:33:43;103771.28;;;7.05;92.07
44920;BME280;30655;53.094;6.072;2023-02-13T04:36:16;103726.97;;;6.85;91.86
44920;BME280;30655;53.094;6.072;2023-02-13T04:38:45;103721.97;;;6.74;92.14
44920;BME280;30655;53.094;6.072;2023-02-13T04:41:12;103826.66;;;7.39;92.09
44920;BME280;30655;53.094;6.072;2023-02-13T04:43:39;103754.88;;;6.92;91.75
44920;BME280;30655;53.094;6.072;2023-02-13T04:46:11;103878.31;;;7.73;92.05
44920;BME280;30655;53.094;6.072;2023-02-13T04:48:48;103879.34;;;7.72;91.79
44920;BME280;30655;53.094;6.072;2023-02-13T04:51:17;103855.34;;;7.54;91.84
44920;BME280;30655;53.094;6.072;2023-02-13T04:53:46;103724.84;;;6.64;92.00
44920;BME280;30655;53.094;6.072;2023-02-13T04:56:21;103828.84;;;7.35;91.70
44920;BME280;30655;53.094;6.072;2023-02-13T04:58:48;103682.75;;;6.40;91.05
44920;BME280;30655;53.094;6.072;2023-02-13T05:01:18;103879.06;;;7.59;91.33
44920;BME280;30655;53.094;6.072;2023-02-13T05:03:47;103689.78;;;6.33;91.71
44920;BME280;30655;53.094;6.072;2023-02-13T05:06:14;103845.84;;;7.27;91.82
44920;BME280;30655;53.094;6.072;2023-02-13T05:08:41;103891.53;;;7.52;91.55
44920;BME280;30655;53.094;6.072;2023-02-13T05:11:10;103881.94;;;7.49;91.63
44920;BME280;30655;53.094;6.072;2023-02-13T05:13:37;103650.88;;;6.13;92.01
44920;BME280;30655;53.094;6.072;2023-02-13T05:16:05;103850.53;;;7.33;91.97
44920;BME280;30655;53.094;6.072;2023-02-13T05:18:33;103662.47;;;6.22;91.47
44920;BME280;30655;53.094;6.072;2023-02-13T05:20:59;103889.03;;;7.50;92.42
44920;BME280;30655;53.094;6.072;2023-02-13T05:23:30;103792.66;;;6.90;92.48
44920;BME280;30655;53.094;6.072;2023-02-13T05:25:57;103793.50;;;6.83;91.94
44920;BME280;30655;53.094;6.072;2023-02-13T05:28:30;103830.25;;;7.15;91.77
44920;BME280;30655;53.094;6.072;2023-02-13T05:31:02;103815.03;;;6.91;92.26
44920;BME280;30655;53.094;6.072;2023-02-13T05:33:30;103794.50;;;6.90;92.12
44920;BME280;30655;53.094;6.072;2023-02-13T05:35:58;103812.97;;;7.01;92.32
44920;BME280;30655;53.094;6.072;2023-02-13T05:38:25;103753.41;;;6.65;92.47
44920;BME280;30655;53.094;6.072;2023-02-13T05:40:52;103698.38;;;6.29;92.72
44920;BME280;30655;53.094;6.072;2023-02-13T05:43:20;103812.34;;;6.91;92.49
44920;BME280;30655;53.094;6.072;2023-02-13T05:45:51;103899.47;;;7.45;92.28
44920;BME280;30655;53.094;6.072;2023-02-13T05:48:26;103818.03;;;6.96;92.75
44920;BME280;30655;53.094;6.072;2023-02-13T05:50:53;103911.06;;;7.46;92.70
44920;BME280;30655;53.094;6.072;2023-02-13T05:54:01;103856.16;;;7.16;93.16
44920;BME280;30655;53.094;6.072;2023-02-13T05:56:32;103820.38;;;6.99;92.59
44920;BME280;30655;53.094;6.072;2023-02-13T05:59:05;103700.56;;;6.17;92.63
44920;BME280;30655;53.094;6.072;2023-02-13T06:01:34;103903.16;;;7.44;92.81
44920;BME280;30655;53.094;6.072;2023-02-13T06:04:05;103851.28;;;7.11;92.80
44920;BME280;30655;53.094;6.072;2023-02-13T06:06:32;103815.66;;;6.93;92.71
44920;BME280;30655;53.094;6.072;2023-02-13T06:09:02;103770.03;;;6.53;92.62
44920;BME280;30655;53.094;6.072;2023-02-13T06:11:33;103742.84;;;6.39;92.83
44920;BME280;30655;53.094;6.072;2023-02-13T06:14:00;103824.78;;;6.76;92.66
44920;BME280;30655;53.094;6.072;2023-02-13T06:16:27;103911.78;;;7.31;92.81
44920;BME280;30655;53.094;6.072;2023-02-13T06:19:01;103807.97;;;6.74;92.95
44920;BME280;30655;53.094;6.072;2023-02-13T06:21:36;103909.41;;;7.37;93.52
44920;BME280;30655;53.094;6.072;2023-02-13T06:24:11;103820.06;;;6.86;93.30
44920;BME280;30655;53.094;6.072;2023-02-13T06:26:41;103911.06;;;7.38;93.19
44920;BME280;30655;53.094;6.072;2023-02-13T06:29:14;103836.88;;;6.96;93.27
44920;BME280;30655;53.094;6.072;2023-02-13T06:31:47;103845.75;;;6.88;93.32
44920;BME280;30655;53.094;6.072;2023-02-13T06:34:24;103697.38;;;6.05;93.52
44920;BME280;30655;53.094;6.072;2023-02-13T06:40:04;103744.69;;;6.23;93.29
44920;BME280;30655;53.094;6.072;2023-02-13T06:42:35;103799.25;;;6.64;93.72
44920;BME280;30655;53.094;6.072;2023-02-13T06:45:17;103716.84;;;6.16;93.57
44920;BME280;30655;53.094;6.072;2023-02-13T06:47:52;103919.34;;;7.36;93.76
44920;BME280;30655;53.094;6.072;2023-02-13T06:50:21;103925.19;;;7.40;93.69
44920;BME280;30655;53.094;6.072;2023-02-13T06:52:49;103894.28;;;7.27;93.99
44920;BME280;30655;53.094;6.072;2023-02-13T06:55:17;103878.00;;;7.13;93.44
44920;BME280;30655;53.094;6.072;2023-02-13T06:57:59;103716.16;;;6.14;93.53
44920;BME280;30655;53.094;6.072;2023-02-13T07:00:32;103767.19;;;6.46;93.39
44920;BME280;30655;53.094;6.072;2023-02-13T07:03:01;103723.41;;;6.21;93.26
44920;BME280;30655;53.094;6.072;2023-02-13T07:05:30;103920.81;;;7.47;93.13
44920;BME280;30655;53.094;6.072;2023-02-13T07:07:57;103832.84;;;6.92;93.42
44920;BME280;30655;53.094;6.072;2023-02-13T07:10:27;103768.38;;;6.43;93.41
44920;BME280;30655;53.094;6.072;2023-02-13T07:13:05;103932.09;;;7.42;93.65
44920;BME280;30655;53.094;6.072;2023-02-13T07:15:58;103929.22;;;7.44;93.76
44920;BME280;30655;53.094;6.072;2023-02-13T07:18:47;103931.91;;;7.44;93.15
44920;BME280;30655;53.094;6.072;2023-02-13T07:21:20;103906.41;;;7.31;93.28
44920;BME280;30655;53.094;6.072;2023-02-13T07:23:47;103932.59;;;7.46;93.69
44920;BME280;30655;53.094;6.072;2023-02-13T07:26:14;103900.69;;;7.26;93.72
44920;BME280;30655;53.094;6.072;2023-02-13T07:28:41;103859.34;;;7.03;93.88
44920;BME280;30655;53.094;6.072;2023-02-13T07:31:09;103912.78;;;7.22;93.87
44920;BME280;30655;53.094;6.072;2023-02-13T07:33:37;103931.59;;;7.47;93.52
44920;BME280;30655;53.094;6.072;2023-02-13T07:36:05;103736.16;;;6.27;93.74
44920;BME280;30655;53.094;6.072;2023-02-13T07:38:33;103931.22;;;7.50;93.82
44920;BME280;30655;53.094;6.072;2023-02-13T07:41:03;103932.72;;;7.52;94.10
44920;BME280;30655;53.094;6.072;2023-02-13T07:43:30;103951.41;;;7.54;93.41
44920;BME280;30655;53.094;6.072;2023-02-13T07:45:58;103817.38;;;6.86;93.53
44920;BME280;30655;53.094;6.072;2023-02-13T07:48:28;103867.22;;;7.21;93.32
44920;BME280;30655;53.094;6.072;2023-02-13T07:50:59;103937.25;;;7.60;93.73
44920;BME280;30655;53.094;6.072;2023-02-13T07:53:26;103939.78;;;7.61;93.92
44920;BME280;30655;53.094;6.072;2023-02-13T07:55:56;103871.28;;;7.17;93.47
44920;BME280;30655;53.094;6.072;2023-02-13T07:58:24;103896.31;;;7.25;93.61
44920;BME280;30655;53.094;6.072;2023-02-13T08:00:52;103922.03;;;7.36;93.43
44920;BME280;30655;53.094;6.072;2023-02-13T08:03:23;103828.78;;;6.88;93.27
44920;BME280;30655;53.094;6.072;2023-02-13T08:06:11;103880.84;;;7.19;93.36
44920;BME280;30655;53.094;6.072;2023-02-13T08:08:45;103860.53;;;7.09;93.64
44920;BME280;30655;53.094;6.072;2023-02-13T08:11:23;103959.13;;;7.65;93.44
44920;BME280;30655;53.094;6.072;2023-02-13T08:13:52;103867.56;;;7.18;93.32
44920;BME280;30655;53.094;6.072;2023-02-13T08:16:19;103945.81;;;7.63;93.33
44920;BME280;30655;53.094;6.072;2023-02-13T08:18:49;103873.28;;;7.15;93.24
44920;BME280;30655;53.094;6.072;2023-02-13T08:21:17;103777.63;;;6.57;93.62
44920;BME280;30655;53.094;6.072;2023-02-13T08:23:44;103940.63;;;7.62;93.43
44920;BME280;30655;53.094;6.072;2023-02-13T08:26:11;103825.94;;;6.89;93.56
44920;BME280;30655;53.094;6.072;2023-02-13T08:28:39;103872.63;;;7.21;93.35
44920;BME280;30655;53.094;6.072;2023-02-13T08:31:09;103909.06;;;7.40;93.38
44920;BME280;30655;53.094;6.072;2023-02-13T08:33:37;103869.25;;;7.19;93.01
44920;BME280;30655;53.094;6.072;2023-02-13T08:36:05;103876.13;;;7.29;93.20
44920;BME280;30655;53.094;6.072;2023-02-13T08:38:33;103890.75;;;7.35;93.67
44920;BME280;30655;53.094;6.072;2023-02-13T08:41:01;103725.22;;;6.29;93.73
44920;BME280;30655;53.094;6.072;2023-02-13T08:43:27;103832.00;;;6.91;93.71
44920;BME280;30655;53.094;6.072;2023-02-13T08:45:58;103793.53;;;6.75;93.09
44920;BME280;30655;53.094;6.072;2023-02-13T08:48:26;103888.91;;;7.35;93.73
44920;BME280;30655;53.094;6.072;2023-02-13T08:50:54;103948.00;;;7.76;93.78
44920;BME280;30655;53.094;6.072;2023-02-13T08:53:21;103961.13;;;7.71;93.26
44920;BME280;30655;53.094;6.072;2023-02-13T08:55:52;103951.34;;;7.78;93.25
44920;BME280;30655;53.094;6.072;2023-02-13T08:58:18;103948.00;;;7.76;93.62
44920;BME280;30655;53.094;6.072;2023-02-13T09:00:46;103955.19;;;7.84;93.60
44920;BME280;30655;53.094;6.072;2023-02-13T09:03:19;103766.84;;;6.65;93.30
44920;BME280;30655;53.094;6.072;2023-02-13T09:05:47;103955.34;;;7.90;93.83
44920;BME280;30655;53.094;6.072;2023-02-13T09:08:13;103811.97;;;6.94;93.39
44920;BME280;30655;53.094;6.072;2023-02-13T09:10:44;103903.97;;;7.53;93.55
44920;BME280;30655;53.094;6.072;2023-02-13T09:13:12;103923.44;;;7.71;93.59
44920;BME280;30655;53.094;6.072;2023-02-13T09:15:39;103955.34;;;7.90;93.65
44920;BME280;30655;53.094;6.072;2023-02-13T09:18:07;103968.28;;;7.95;93.53
44920;BME280;30655;53.094;6.072;2023-02-13T09:20:35;103751.53;;;6.74;93.06
44920;BME280;30655;53.094;6.072;2023-02-13T09:23:02;103961.69;;;7.97;93.78
44920;BME280;30655;53.094;6.072;2023-02-13T09:25:35;103970.09;;;8.02;93.96
44920;BME280;30655;53.094;6.072;2023-02-13T09:28:04;103802.16;;;7.17;93.64
44920;BME280;30655;53.094;6.072;2023-02-13T09:30:31;103911.47;;;7.82;93.90
44920;BME280;30655;53.094;6.072;2023-02-13T09:33:00;103933.75;;;7.98;93.80
44920;BME280;30655;53.094;6.072;2023-02-13T09:35:27;103895.47;;;7.80;93.62
44920;BME280;30655;53.094;6.072;2023-02-13T09:37:55;103917.63;;;7.90;93.52
44920;BME280;30655;53.094;6.072;2023-02-13T09:40:26;103950.53;;;8.16;94.00
44920;BME280;30655;53.094;6.072;2023-02-13T09:43:04;103837.09;;;7.42;93.75
44920;BME280;30655;53.094;6.072;2023-02-13T09:45:33;103791.56;;;7.24;93.80
44920;BME280;30655;53.094;6.072;2023-02-13T09:48:01;103877.22;;;7.59;93.68
44920;BME280;30655;53.094;6.072;2023-02-13T09:50:32;103955.72;;;8.18;93.49
44920;BME280;30655;53.094;6.072;2023-02-13T09:53:03;103824.28;;;7.44;93.67
44920;BME280;30655;53.094;6.072;2023-02-13T09:55:34;103845.13;;;7.50;93.34
44920;BME280;30655;53.094;6.072;2023-02-13T09:58:09;103818.88;;;7.44;93.34
44920;BME280;30655;53.094;6.072;2023-02-13T10:00:45;103795.72;;;7.34;93.68
44920;BME280;30655;53.094;6.072;2023-02-13T10:03:28;103811.81;;;7.43;93.51
44920;BME280;30655;53.094;6.072;2023-02-13T10:06:03;103827.75;;;7.52;93.78
44920;BME280;30655;53.094;6.072;2023-02-13T10:08:54;103940.38;;;8.27;93.47
44920;BME280;30655;53.094;6.072;2023-02-13T10:11:42;103916.50;;;8.15;93.30
44920;BME280;30655;53.094;6.072;2023-02-13T10:14:16;103910.50;;;8.05;93.54
44920;BME280;30655;53.094;6.072;2023-02-13T10:16:49;103805.59;;;7.50;93.38
44920;BME280;30655;53.094;6.072;2023-02-13T11:05:00;103742.22;;;7.40;91.79
44920;BME280;30655;53.094;6.072;2023-02-13T11:19:50;103757.13;;;7.81;92.14
44920;BME280;30655;53.094;6.072;2023-02-13T11:22:28;103764.66;;;7.86;92.49
44920;BME280;30655;53.094;6.072;2023-02-13T11:24:57;103819.53;;;8.38;92.66
44920;BME280;30655;53.094;6.072;2023-02-13T11:27:27;103845.34;;;8.55;92.20
44920;BME280;30655;53.094;6.072;2023-02-13T11:29:57;103902.09;;;8.99;92.95
44920;BME280;30655;53.094;6.072;2023-02-13T11:32:26;103898.69;;;9.05;92.69
44920;BME280;30655;53.094;6.072;2023-02-13T11:34:55;103893.19;;;9.14;92.64
44920;BME280;30655;53.094;6.072;2023-02-13T11:37:25;103882.88;;;9.17;92.33
44920;BME280;30655;53.094;6.072;2023-02-13T11:39:53;103901.50;;;9.27;92.37
44920;BME280;30655;53.094;6.072;2023-02-13T11:42:25;103889.50;;;9.29;91.71
44920;BME280;30655;53.094;6.072;2023-02-13T11:44:54;103875.31;;;9.13;91.88
44920;BME280;30655;53.094;6.072;2023-02-13T11:47:33;103887.34;;;9.25;90.97
44920;BME280;30655;53.094;6.072;2023-02-13T11:50:03;103838.38;;;8.98;91.67
44920;BME280;30655;53.094;6.072;2023-02-13T11:52:32;103888.66;;;9.43;91.97
44920;BME280;30655;53.094;6.072;2023-02-13T11:55:01;103858.88;;;9.37;91.86
44920;BME280;30655;53.094;6.072;2023-02-13T11:57:33;103814.75;;;9.15;91.88
44920;BME280;30655;53.094;6.072;2023-02-13T12:00:26;103830.28;;;9.28;91.54
44920;BME280;30655;53.094;6.072;2023-02-13T12:02:53;103775.88;;;9.10;91.67
44920;BME280;30655;53.094;6.072;2023-02-13T12:08:19;103839.75;;;9.68;91.27
44920;BME280;30655;53.094;6.072;2023-02-13T12:10:46;103752.75;;;9.22;91.49
44920;BME280;30655;53.094;6.072;2023-02-13T12:13:20;103861.88;;;9.92;90.96
44920;BME280;30655;53.094;6.072;2023-02-13T12:15:56;103679.59;;;8.81;90.33
44920;BME280;30655;53.094;6.072;2023-02-13T12:18:30;103839.00;;;9.74;89.74
44920;BME280;30655;53.094;6.072;2023-02-13T12:21:06;103860.13;;;9.85;89.65
44920;BME280;30655;53.094;6.072;2023-02-13T12:23:43;103810.53;;;9.57;89.37
44920;BME280;30655;53.094;6.072;2023-02-13T12:26:22;103747.09;;;9.17;89.72
44920;BME280;30655;53.094;6.072;2023-02-13T12:29:03;103746.56;;;9.21;89.62
44920;BME280;30655;53.094;6.072;2023-02-13T12:31:42;103869.97;;;9.92;90.25
44920;BME280;30655;53.094;6.072;2023-02-13T12:34:43;103660.91;;;8.79;89.33
44920;BME280;30655;53.094;6.072;2023-02-13T12:37:27;103716.31;;;9.26;90.18
44920;BME280;30655;53.094;6.072;2023-02-13T12:40:20;103842.47;;;10.18;90.02
44920;BME280;30655;53.094;6.072;2023-02-13T12:43:06;103834.59;;;10.23;90.00
44920;BME280;30655;53.094;6.072;2023-02-13T12:45:45;103684.06;;;9.39;88.57
44920;BME280;30655;53.094;6.072;2023-02-13T12:48:28;103754.56;;;9.65;88.63
44920;BME280;30655;53.094;6.072;2023-02-13T12:51:06;103698.22;;;9.41;88.67
44920;BME280;30655;53.094;6.072;2023-02-13T12:53:51;103822.78;;;10.24;89.00
44920;BME280;30655;53.094;6.072;2023-02-13T12:56:37;103724.09;;;9.71;88.99
44920;BME280;30655;53.094;6.072;2023-02-13T12:59:17;103761.34;;;9.97;88.51
44920;BME280;30655;53.094;6.072;2023-02-13T13:02:17;103666.72;;;9.48;88.47
44920;BME280;30655;53.094;6.072;2023-02-13T13:04:57;103752.78;;;9.93;88.63
44920;BME280;30655;53.094;6.072;2023-02-13T13:07:39;103839.44;;;10.49;88.97
44920;BME280;30655;53.094;6.072;2023-02-13T13:10:25;103825.78;;;10.57;89.02
44920;BME280;30655;53.094;6.072;2023-02-13T13:13:05;103749.31;;;10.00;87.17
44920;BME280;30655;53.094;6.072;2023-02-13T13:15:41;103759.09;;;10.22;87.88
44920;BME280;30655;53.094;6.072;2023-02-13T13:18:26;103736.31;;;10.10;88.03
44920;BME280;30655;53.094;6.072;2023-02-13T13:21:04;103695.28;;;10.00;87.98
44920;BME280;30655;53.094;6.072;2023-02-13T13:23:39;103658.28;;;9.79;88.01
44920;BME280;30655;53.094;6.072;2023-02-13T13:26:18;103804.53;;;10.54;86.30
44920;BME280;30655;53.094;6.072;2023-02-13T13:28:57;103615.56;;;9.40;86.95
44920;BME280;30655;53.094;6.072;2023-02-13T13:31:27;103687.50;;;9.90;87.15
44920;BME280;30655;53.094;6.072;2023-02-13T13:34:01;103797.03;;;10.56;87.34
44920;BME280;30655;53.094;6.072;2023-02-13T13:36:42;103721.66;;;10.19;87.35
44920;BME280;30655;53.094;6.072;2023-02-13T13:39:23;103735.28;;;10.32;87.56
44920;BME280;30655;53.094;6.072;2023-02-13T13:41:59;103608.91;;;9.64;87.34
44920;BME280;30655;53.094;6.072;2023-02-13T13:44:52;103723.84;;;10.30;85.86
44920;BME280;30655;53.094;6.072;2023-02-13T13:47:36;103668.78;;;9.88;85.17
44920;BME280;30655;53.094;6.072;2023-02-13T13:50:17;103652.13;;;9.85;85.45
44920;BME280;30655;53.094;6.072;2023-02-13T13:53:06;103757.47;;;10.49;85.54
44920;BME280;30655;53.094;6.072;2023-02-13T13:58:47;103710.06;;;10.25;86.03
44920;BME280;30655;53.094;6.072;2023-02-13T14:01:24;103675.44;;;10.14;85.86
44920;BME280;30655;53.094;6.072;2023-02-13T14:03:53;103720.56;;;10.34;85.65
44920;BME280;30655;53.094;6.072;2023-02-13T14:06:24;103694.34;;;10.35;85.74
44920;BME280;30655;53.094;6.072;2023-02-13T14:08:58;103578.78;;;9.60;85.20
44920;BME280;30655;53.094;6.072;2023-02-13T14:11:43;103623.09;;;9.93;85.18
44920;BME280;30655;53.094;6.072;2023-02-13T14:14:48;103753.06;;;10.69;85.27
44920;BME280;30655;53.094;6.072;2023-02-13T14:17:53;103769.88;;;10.64;84.61
44920;BME280;30655;53.094;6.072;2023-02-13T14:20:35;103699.09;;;10.33;84.63
44920;BME280;30655;53.094;6.072;2023-02-13T14:23:17;103742.41;;;10.67;84.48
44920;BME280;30655;53.094;6.072;2023-02-13T14:29:01;103557.28;;;9.52;84.57
44920;BME280;30655;53.094;6.072;2023-02-13T14:31:37;103587.13;;;9.65;84.74
44920;BME280;30655;53.094;6.072;2023-02-13T14:34:31;103585.06;;;9.67;84.79
44920;BME280;30655;53.094;6.072;2023-02-13T14:37:17;103638.03;;;9.89;84.45
44920;BME280;30655;53.094;6.072;2023-02-13T14:43:06;103583.28;;;9.53;84.38
44920;BME280;30655;53.094;6.072;2023-02-13T14:45:47;103587.50;;;9.62;84.58